Time;durP1;ratioP1;P1;durP2;ratioP2;P2;SDS_P1;SDS_P2;PMS_P1;PMS_P2;Temp;Humidity;BMP_temperature;BMP_pressure;BME280_temperature;BME280_humidity;BME280_pressure;Samples;Min_cycle;Max_cycle;Signal;HPM_P1;HPM_P2
2023/03/02 00:04:20;;;;;;;6.80;3.53;;;;;;;;;;10377800;28;20054;-78
2023/03/02 00:09:24;;;;;;;7.35;3.78;;;;;;;;;;10377509;28;20045;-79
2023/03/02 00:14:27;;;;;;;6.55;3.70;;;;;;;;;;10380730;28;20053;-81
2023/03/02 00:19:32;;;;;;;5.90;3.75;;;;;;;;;;10382063;28;20067;-79
2023/03/02 00:24:35;;;;;;;5.80;3.88;;;;;;;;;;10399350;28;20236;-80
2023/03/02 00:29:38;;;;;;;5.35;3.97;;;;;;;;;;10383000;28;20037;-80
2023/03/02 00:34:43;;;;;;;7.30;4.20;;;;;;;;;;10381468;28;20114;-80
2023/03/02 00:39:47;;;;;;;6.25;3.88;;;;;;;;;;10377781;28;20061;-80
2023/03/02 00:44:51;;;;;;;6.35;3.90;;;;;;;;;;10373270;28;20045;-81
2023/03/02 00:49:56;;;;;;;6.45;3.65;;;;;;;;;;10375390;28;20075;-80
2023/03/02 00:55:00;;;;;;;7.03;4.32;;;;;;;;;;10376367;28;20512;-80
2023/03/02 01:00:04;;;;;;;6.95;3.65;;;;;;;;;;10370721;28;20089;-79
2023/03/02 01:05:13;;;;;;;5.78;3.70;;;;;;;;;;10375230;28;20124;-81
2023/03/02 01:10:17;;;;;;;7.05;3.97;;;;;;;;;;10375332;28;20049;-79
2023/03/02 01:15:20;;;;;;;6.68;3.92;;;;;;;;;;10374507;28;20510;-79
2023/03/02 01:20:25;;;;;;;5.32;3.70;;;;;;;;;;10375695;28;20623;-79
2023/03/02 01:25:29;;;;;;;7.22;4.07;;;;;;;;;;10375515;28;20217;-80
2023/03/02 01:30:32;;;;;;;7.20;4.15;;;;;;;;;;10374409;28;20053;-79
2023/03/02 01:35:37;;;;;;;7.55;4.53;;;;;;;;;;10375625;28;20045;-78
2023/03/02 01:40:40;;;;;;;7.43;4.55;;;;;;;;;;10394260;28;20053;-78
2023/03/02 01:45:51;;;;;;;8.80;4.38;;;;;;;;;;10377324;28;20048;-78
2023/03/02 01:51:15;;;;;;;5.85;3.70;;;;;;;;;;10377659;28;20516;-78
2023/03/02 01:56:23;;;;;;;5.68;3.78;;;;;;;;;;10386311;28;20718;-79
2023/03/02 02:01:29;;;;;;;6.88;4.25;;;;;;;;;;10383688;28;20080;-82
2023/03/02 02:06:39;;;;;;;7.90;4.20;;;;;;;;;;10386570;28;20058;-79
2023/03/02 02:11:43;;;;;;;9.70;4.30;;;;;;;;;;10382291;28;20056;-80
2023/03/02 02:16:47;;;;;;;8.82;4.47;;;;;;;;;;10408059;28;20045;-78
2023/03/02 02:21:52;;;;;;;6.78;4.00;;;;;;;;;;10388343;28;20069;-80
2023/03/02 02:26:58;;;;;;;9.45;4.50;;;;;;;;;;10388622;28;20041;-78
2023/03/02 02:32:05;;;;;;;8.00;4.60;;;;;;;;;;10387613;28;20052;-80
2023/03/02 02:37:14;;;;;;;7.10;4.22;;;;;;;;;;10379551;28;20049;-80
2023/03/02 02:42:21;;;;;;;8.75;4.07;;;;;;;;;;10385840;28;20068;-80
2023/03/02 02:47:25;;;;;;;8.30;4.68;;;;;;;;;;10382350;28;20041;-82
2023/03/02 02:52:29;;;;;;;8.35;5.00;;;;;;;;;;10380599;28;20046;-83
2023/03/02 02:57:34;;;;;;;7.15;3.90;;;;;;;;;;10382572;28;20069;-80
2023/03/02 03:02:44;;;;;;;7.75;4.40;;;;;;;;;;10367592;28;20217;-80
2023/03/02 03:07:47;;;;;;;7.05;4.53;;;;;;;;;;10387491;28;20053;-79
2023/03/02 03:12:53;;;;;;;6.50;3.80;;;;;;;;;;10383656;28;20050;-82
2023/03/02 03:17:58;;;;;;;10.00;4.35;;;;;;;;;;10385065;28;20114;-82
2023/03/02 03:23:03;;;;;;;7.22;4.10;;;;;;;;;;10388631;28;20041;-79
2023/03/02 03:28:08;;;;;;;7.85;4.47;;;;;;;;;;10380379;28;20041;-79
2023/03/02 03:33:12;;;;;;;7.07;4.67;;;;;;;;;;10384731;28;20076;-79
2023/03/02 03:38:17;;;;;;;6.97;4.43;;;;;;;;;;10388401;28;20459;-80
2023/03/02 03:43:23;;;;;;;7.32;4.15;;;;;;;;;;10379620;28;20041;-82
2023/03/02 03:48:29;;;;;;;11.15;5.35;;;;;;;;;;10381731;28;20463;-81
2023/03/02 03:53:33;;;;;;;9.00;4.63;;;;;;;;;;10392300;28;20042;-80
2023/03/02 03:58:38;;;;;;;8.77;4.72;;;;;;;;;;10380608;28;20416;-80
2023/03/02 04:03:42;;;;;;;8.13;4.32;;;;;;;;;;10385313;28;20046;-81
2023/03/02 04:08:45;;;;;;;7.87;4.87;;;;;;;;;;10375323;28;20095;-81
2023/03/02 04:13:50;;;;;;;6.97;4.13;;;;;;;;;;10377676;28;20062;-80
2023/03/02 04:18:54;;;;;;;9.88;4.43;;;;;;;;;;10381874;28;20504;-81
2023/03/02 04:23:57;;;;;;;7.57;4.15;;;;;;;;;;10385722;28;20621;-80
2023/03/02 04:29:02;;;;;;;7.63;4.13;;;;;;;;;;10394202;28;20564;-81
2023/03/02 04:34:07;;;;;;;7.30;4.22;;;;;;;;;;10387810;28;20053;-79
2023/03/02 04:39:13;;;;;;;;;;;;;;;;;;10388924;28;20056;-79
2023/03/02 04:44:21;;;;;;;6.82;3.65;;;;;;;;;;10400904;28;19964;-80
2023/03/02 04:49:24;;;;;;;5.27;3.50;;;;;;;;;;10419264;28;20081;-80
2023/03/02 04:54:29;;;;;;;8.13;3.75;;;;;;;;;;10405203;28;20065;-79
2023/03/02 04:59:34;;;;;;;4.55;3.35;;;;;;;;;;10398334;28;20030;-79
2023/03/02 05:04:39;;;;;;;7.70;3.90;;;;;;;;;;10389970;28;20041;-80
2023/03/02 05:09:42;;;;;;;7.75;3.70;;;;;;;;;;10383569;28;20723;-79
2023/03/02 05:14:47;;;;;;;5.47;3.55;;;;;;;;;;10394997;28;20132;-80
2023/03/02 05:19:51;;;;;;;8.45;3.65;;;;;;;;;;10369549;28;20052;-80
2023/03/02 05:24:54;;;;;;;7.57;4.60;;;;;;;;;;10355620;28;20056;-79
2023/03/02 05:29:59;;;;;;;9.40;4.50;;;;;;;;;;10396371;28;20046;-79
2023/03/02 05:35:05;;;;;;;4.85;3.22;;;;;;;;;;10397051;28;20056;-80
2023/03/02 05:40:13;;;;;;;6.93;3.78;;;;;;;;;;10391350;28;20054;-79
2023/03/02 05:45:21;;;;;;;6.18;3.35;;;;;;;;;;10384500;28;20412;-78
2023/03/02 05:50:25;;;;;;;4.32;3.35;;;;;;;;;;10393708;28;20045;-80
2023/03/02 05:55:30;;;;;;;5.70;3.00;;;;;;;;;;10410129;28;20058;-81
2023/03/02 06:00:35;;;;;;;3.63;2.83;;;;;;;;;;10399874;28;20349;-83
2023/03/02 06:05:39;;;;;;;6.28;3.28;;;;;;;;;;10387137;28;20049;-82
2023/03/02 06:10:42;;;;;;;6.15;3.40;;;;;;;;;;10396848;28;20095;-81
2023/03/02 06:15:47;;;;;;;9.00;4.25;;;;;;;;;;10395111;28;20423;-82
2023/03/02 06:20:51;;;;;;;5.10;3.20;;;;;;;;;;10388760;28;20048;-82
2023/03/02 06:25:54;;;;;;;5.82;3.35;;;;;;;;;;10383018;28;20061;-82
2023/03/02 06:30:59;;;;;;;5.75;3.30;;;;;;;;;;10384938;28;20436;-82
2023/03/02 06:36:02;;;;;;;4.88;3.00;;;;;;;;;;10384305;28;20057;-82
2023/03/02 06:41:06;;;;;;;7.13;3.60;;;;;;;;;;10374827;28;20081;-82
2023/03/02 06:46:11;;;;;;;5.15;3.22;;;;;;;;;;10386411;28;20395;-82
2023/03/02 06:51:14;;;;;;;4.83;3.03;;;;;;;;;;10397306;28;20041;-82
2023/03/02 06:56:18;;;;;;;6.97;3.28;;;;;;;;;;10397574;28;20073;-82
2023/03/02 07:01:22;;;;;;;6.07;3.30;;;;;;;;;;10389231;28;20041;-83
2023/03/02 07:06:26;;;;;;;9.48;3.28;;;;;;;;;;10381157;28;20048;-81
2023/03/02 07:11:29;;;;;;;7.85;3.20;;;;;;;;;;10380406;28;20076;-82
2023/03/02 07:16:35;;;;;;;5.90;3.28;;;;;;;;;;10380909;28;20057;-82
2023/03/02 07:21:38;;;;;;;5.27;2.90;;;;;;;;;;10377091;28;20045;-82
2023/03/02 07:26:41;;;;;;;4.90;3.17;;;;;;;;;;10379796;28;20190;-82
2023/03/02 07:31:47;;;;;;;6.07;3.15;;;;;;;;;;10384673;28;20389;-82
2023/03/02 07:36:50;;;;;;;3.43;2.30;;;;;;;;;;10373889;28;20049;-82
2023/03/02 07:41:57;;;;;;;4.95;3.08;;;;;;;;;;10377969;28;20034;-82
2023/03/02 07:47:02;;;;;;;5.38;2.92;;;;;;;;;;10371686;28;20096;-82
2023/03/02 07:52:08;;;;;;;6.00;3.70;;;;;;;;;;10365603;28;20515;-82
2023/03/02 07:57:12;;;;;;;;;;;;;;;;;;10373346;28;20045;-82
2023/03/02 08:02:19;;;;;;;4.78;3.10;;;;;;;;;;10386651;28;19921;-82
2023/03/02 08:07:22;;;;;;;5.25;3.50;;;;;;;;;;10387491;28;20038;-82
2023/03/02 08:12:26;;;;;;;7.63;4.57;;;;;;;;;;10375862;28;20053;-82
2023/03/02 08:17:31;;;;;;;8.00;4.78;;;;;;;;;;10391285;28;20530;-82
2023/03/02 08:22:35;;;;;;;8.00;4.97;;;;;;;;;;10386468;28;20051;-82
2023/03/02 08:27:39;;;;;;;8.13;4.65;;;;;;;;;;10384576;28;20263;-82
2023/03/02 08:32:44;;;;;;;8.80;4.78;;;;;;;;;;10375719;28;20837;-82
2023/03/02 08:37:47;;;;;;;9.40;5.57;;;;;;;;;;10373248;28;20069;-82
2023/03/02 08:42:55;;;;;;;7.20;4.95;;;;;;;;;;10383022;28;20045;-82
2023/03/02 08:48:00;;;;;;;10.88;5.80;;;;;;;;;;10385132;28;20056;-81
2023/03/02 08:53:04;;;;;;;6.18;3.95;;;;;;;;;;10371926;28;20452;-83
2023/03/02 08:58:07;;;;;;;8.10;4.75;;;;;;;;;;10375498;28;20045;-82
2023/03/02 09:03:15;;;;;;;6.78;4.20;;;;;;;;;;10373995;28;20494;-81
2023/03/02 09:08:19;;;;;;;7.32;4.60;;;;;;;;;;10382548;28;20041;-82
2023/03/02 09:13:22;;;;;;;7.18;4.53;;;;;;;;;;10375210;28;20043;-83
2023/03/02 09:18:27;;;;;;;7.07;4.28;;;;;;;;;;10387759;28;20049;-82
2023/03/02 09:23:32;;;;;;;8.10;4.82;;;;;;;;;;10388352;28;20045;-83
2023/03/02 09:28:36;;;;;;;7.35;4.55;;;;;;;;;;10389478;28;20056;-82
2023/03/02 09:33:41;;;;;;;9.18;5.50;;;;;;;;;;10377343;28;20045;-82
2023/03/02 09:38:44;;;;;;;7.03;4.50;;;;;;;;;;10374885;28;20565;-82
2023/03/02 09:43:57;;;;;;;8.38;5.05;;;;;;;;;;10378836;28;20050;-81
2023/03/02 09:49:17;;;;;;;7.97;5.40;;;;;;;;;;10378701;28;20416;-81
2023/03/02 09:54:24;;;;;;;9.68;6.38;;;;;;;;;;10386573;28;20496;-81
2023/03/02 09:59:30;;;;;;;7.65;5.13;;;;;;;;;;10381880;28;20049;-81
2023/03/02 10:04:43;;;;;;;10.95;5.57;;;;;;;;;;10390364;28;20496;-81
2023/03/02 10:09:47;;;;;;;11.52;6.38;;;;;;;;;;10382672;28;20570;-81
2023/03/02 10:14:56;;;;;;;11.00;6.78;;;;;;;;;;10382684;28;20500;-82
2023/03/02 10:20:10;;;;;;;10.65;5.65;;;;;;;;;;10382758;28;20083;-81
2023/03/02 10:25:23;;;;;;;7.95;5.55;;;;;;;;;;10388347;28;20053;-81
2023/03/02 10:30:30;;;;;;;9.05;5.70;;;;;;;;;;10398819;28;20057;-81
2023/03/02 10:35:38;;;;;;;8.80;5.47;;;;;;;;;;10396523;28;20120;-82
2023/03/02 10:40:43;;;;;;;11.48;6.38;;;;;;;;;;10395299;28;20100;-82
2023/03/02 10:45:57;;;;;;;9.32;5.80;;;;;;;;;;10400046;28;20059;-81
2023/03/02 10:51:04;;;;;;;6.63;4.35;;;;;;;;;;10385862;28;20128;-82
2023/03/02 10:56:19;;;;;;;8.52;5.85;;;;;;;;;;10400668;28;20056;-82
2023/03/02 11:01:23;;;;;;;9.07;5.55;;;;;;;;;;10386320;28;20064;-81
2023/03/02 11:06:29;;;;;;;10.23;5.53;;;;;;;;;;10385164;28;20069;-81
2023/03/02 11:11:33;;;;;;;6.97;4.18;;;;;;;;;;10387351;28;20412;-83
2023/03/02 11:16:36;;;;;;;8.35;5.47;;;;;;;;;;10391107;28;20046;-81
2023/03/02 11:21:47;;;;;;;9.32;5.63;;;;;;;;;;10390878;28;20049;-83
2023/03/02 11:26:52;;;;;;;8.35;5.20;;;;;;;;;;10396041;28;20045;-81
2023/03/02 11:32:00;;;;;;;8.35;5.80;;;;;;;;;;10388768;28;20041;-84
2023/03/02 11:37:20;;;;;;;11.45;5.68;;;;;;;;;;10394957;28;20103;-83
2023/03/02 11:42:29;;;;;;;9.88;5.68;;;;;;;;;;10388062;28;20053;-81
2023/03/02 11:47:33;;;;;;;11.40;6.07;;;;;;;;;;10385469;28;20120;-82
2023/03/02 11:52:44;;;;;;;9.10;5.38;;;;;;;;;;10396982;28;20052;-82
2023/03/02 11:57:50;;;;;;;10.18;5.57;;;;;;;;;;10366456;28;20879;-81
2023/03/02 12:03:02;;;;;;;9.68;5.15;;;;;;;;;;10378985;28;20041;-82
2023/03/02 12:08:23;;;;;;;8.85;5.38;;;;;;;;;;10384787;28;20050;-81
2023/03/02 12:13:28;;;;;;;8.88;5.15;;;;;;;;;;10373637;28;20049;-83
2023/03/02 12:18:47;;;;;;;12.20;6.28;;;;;;;;;;10376793;28;20084;-83
2023/03/02 12:23:59;;;;;;;8.30;5.35;;;;;;;;;;10371656;28;20069;-83
2023/03/02 12:29:09;;;;;;;12.40;6.63;;;;;;;;;;10373822;28;20532;-82
2023/03/02 12:34:33;;;;;;;11.30;6.28;;;;;;;;;;10378327;28;20041;-82
2023/03/02 12:40:22;;;;;;;8.00;4.43;;;;;;;;;;10383463;28;20488;-83
2023/03/02 12:45:43;;;;;;;7.35;4.63;;;;;;;;;;10344132;28;20065;-83
2023/03/02 12:50:48;;;;;;;9.35;5.18;;;;;;;;;;10381736;28;20049;-81
2023/03/02 12:55:51;;;;;;;5.82;4.10;;;;;;;;;;10386006;28;20054;-82
2023/03/02 13:00:58;;;;;;;10.75;5.38;;;;;;;;;;10369614;28;20128;-82
2023/03/02 13:06:03;;;;;;;8.77;4.57;;;;;;;;;;10377878;28;20041;-81
2023/03/02 13:11:06;;;;;;;7.82;4.35;;;;;;;;;;10374190;28;20056;-82
2023/03/02 13:16:23;;;;;;;9.57;5.05;;;;;;;;;;10370772;28;20057;-82
2023/03/02 13:21:31;;;;;;;6.68;3.70;;;;;;;;;;10379761;28;20049;-83
2023/03/02 13:26:38;;;;;;;10.13;4.47;;;;;;;;;;10372451;28;20427;-83
2023/03/02 13:31:43;;;;;;;7.65;4.18;;;;;;;;;;10379911;28;20439;-83
2023/03/02 13:36:46;;;;;;;10.50;5.15;;;;;;;;;;10379980;28;20060;-83
2023/03/02 13:41:55;;;;;;;7.95;4.80;;;;;;;;;;10384787;28;20416;-82
2023/03/02 13:47:00;;;;;;;8.25;5.07;;;;;;;;;;10370547;28;20041;-83
2023/03/02 13:52:06;;;;;;;7.18;4.22;;;;;;;;;;10382124;28;20103;-83
2023/03/02 13:57:15;;;;;;;8.07;3.78;;;;;;;;;;10394910;28;20049;-82
2023/03/02 14:02:24;;;;;;;7.00;3.47;;;;;;;;;;10384927;28;20468;-82
2023/03/02 14:07:27;;;;;;;6.63;3.60;;;;;;;;;;10388204;28;20312;-82
2023/03/02 14:12:32;;;;;;;9.45;4.10;;;;;;;;;;10375512;28;20750;-82
2023/03/02 14:17:37;;;;;;;6.05;3.55;;;;;;;;;;10387888;28;20042;-83
2023/03/02 14:22:43;;;;;;;5.25;3.60;;;;;;;;;;10379437;28;20036;-83
2023/03/02 14:27:48;;;;;;;5.77;3.10;;;;;;;;;;10385550;28;20123;-82
2023/03/02 14:32:52;;;;;;;5.30;3.40;;;;;;;;;;10396282;28;20057;-82
2023/03/02 14:37:56;;;;;;;6.65;3.60;;;;;;;;;;10388514;28;20049;-84
2023/03/02 14:42:59;;;;;;;10.00;3.78;;;;;;;;;;10373562;28;20243;-82
2023/03/02 14:48:05;;;;;;;4.90;3.65;;;;;;;;;;10389980;28;20054;-82
2023/03/02 14:53:14;;;;;;;6.68;4.00;;;;;;;;;;10387799;28;20060;-82
2023/03/02 14:58:20;;;;;;;6.03;4.00;;;;;;;;;;10379488;28;20125;-83
2023/03/02 15:03:25;;;;;;;6.72;3.95;;;;;;;;;;10394419;28;20413;-83
2023/03/02 15:08:29;;;;;;;5.05;3.00;;;;;;;;;;10377559;28;20053;-83
2023/03/02 15:13:37;;;;;;;7.30;4.20;;;;;;;;;;10403570;28;20132;-83
2023/03/02 15:18:43;;;;;;;6.93;3.55;;;;;;;;;;10407214;28;20041;-83
2023/03/02 15:23:50;;;;;;;5.90;3.53;;;;;;;;;;10393005;28;20076;-82
2023/03/02 15:28:57;;;;;;;5.13;3.42;;;;;;;;;;10388365;28;20056;-83
2023/03/02 15:34:02;;;;;;;6.70;3.78;;;;;;;;;;10386478;28;20037;-82
2023/03/02 15:39:11;;;;;;;8.63;3.30;;;;;;;;;;10387935;28;20115;-82
2023/03/02 15:44:21;;;;;;;5.07;2.95;;;;;;;;;;10406801;28;20043;-82
2023/03/02 15:49:38;;;;;;;5.28;3.90;;;;;;;;;;10401757;28;20547;-83
2023/03/02 15:54:45;;;;;;;5.75;3.50;;;;;;;;;;10392748;28;20064;-82
2023/03/02 15:59:49;;;;;;;4.57;3.60;;;;;;;;;;10397091;28;20037;-82
2023/03/02 16:04:54;;;;;;;8.23;3.75;;;;;;;;;;10390307;28;20041;-82
2023/03/02 16:09:57;;;;;;;5.40;3.47;;;;;;;;;;10391580;28;20057;-82
2023/03/02 16:15:01;;;;;;;5.18;3.35;;;;;;;;;;10402101;28;20254;-83
2023/03/02 16:20:06;;;;;;;4.53;2.88;;;;;;;;;;10392922;28;20065;-83
2023/03/02 16:25:10;;;;;;;5.00;2.97;;;;;;;;;;10384105;28;20041;-81
2023/03/02 16:30:15;;;;;;;4.18;2.83;;;;;;;;;;10369588;28;20505;-80
2023/03/02 16:35:20;;;;;;;5.65;3.28;;;;;;;;;;10384127;28;20098;-80
2023/03/02 16:40:24;;;;;;;5.55;3.20;;;;;;;;;;10385608;28;21073;-79
2023/03/02 16:45:28;;;;;;;6.32;4.03;;;;;;;;;;10382304;28;20049;-80
2023/03/02 16:50:32;;;;;;;5.75;3.53;;;;;;;;;;10372845;28;20472;-81
2023/03/02 16:55:36;;;;;;;5.32;2.80;;;;;;;;;;10378997;28;20076;-81
2023/03/02 17:00:41;;;;;;;3.85;2.70;;;;;;;;;;10378219;28;20053;-82
2023/03/02 17:05:46;;;;;;;3.88;2.58;;;;;;;;;;10391398;28;20136;-81
2023/03/02 17:10:49;;;;;;;3.38;2.40;;;;;;;;;;10379163;28;20060;-81
2023/03/02 17:15:52;;;;;;;3.33;2.08;;;;;;;;;;10378170;28;20042;-82
2023/03/02 17:20:58;;;;;;;4.35;3.00;;;;;;;;;;10376367;28;20069;-82
2023/03/02 17:26:02;;;;;;;3.85;2.10;;;;;;;;;;10381622;28;20061;-81
2023/03/02 17:31:06;;;;;;;4.88;3.05;;;;;;;;;;10382113;28;20252;-82
2023/03/02 17:36:11;;;;;;;5.18;3.58;;;;;;;;;;10376912;28;20320;-81
2023/03/02 17:41:15;;;;;;;5.57;3.13;;;;;;;;;;10374657;28;20046;-81
2023/03/02 17:46:21;;;;;;;5.30;2.60;;;;;;;;;;10381804;28;20053;-81
2023/03/02 17:51:28;;;;;;;3.10;2.20;;;;;;;;;;10383288;28;20072;-80
2023/03/02 17:56:31;;;;;;;3.53;1.95;;;;;;;;;;10363732;28;20653;-81
2023/03/02 18:01:35;;;;;;;3.63;1.95;;;;;;;;;;10377288;28;20062;-81
2023/03/02 18:06:40;;;;;;;2.75;1.73;;;;;;;;;;10384291;28;20061;-79
2023/03/02 18:11:44;;;;;;;2.67;1.90;;;;;;;;;;10390701;28;20041;-80
2023/03/02 18:16:48;;;;;;;3.17;2.20;;;;;;;;;;10396209;28;20046;-81
2023/03/02 18:21:53;;;;;;;3.90;2.05;;;;;;;;;;10378860;28;20053;-80
2023/03/02 18:26:57;;;;;;;3.72;2.30;;;;;;;;;;10386484;28;20049;-80
2023/03/02 18:32:00;;;;;;;3.00;2.05;;;;;;;;;;10371754;28;20075;-80
2023/03/02 18:37:05;;;;;;;3.88;2.25;;;;;;;;;;10393923;28;20038;-80
2023/03/02 18:42:08;;;;;;;3.33;2.42;;;;;;;;;;10388826;28;20049;-79
2023/03/02 18:47:17;;;;;;;3.75;2.53;;;;;;;;;;10376956;28;20060;-79
2023/03/02 18:52:21;;;;;;;4.82;2.47;;;;;;;;;;10395918;28;20052;-80
2023/03/02 18:57:25;;;;;;;4.05;2.60;;;;;;;;;;10380608;28;20045;-79
2023/03/02 19:02:28;;;;;;;3.30;2.40;;;;;;;;;;10374459;28;20049;-80
2023/03/02 19:07:33;;;;;;;5.07;2.95;;;;;;;;;;10387058;28;20067;-79
2023/03/02 19:12:37;;;;;;;6.47;3.90;;;;;;;;;;10386994;28;20459;-80
2023/03/02 19:17:42;;;;;;;8.13;3.80;;;;;;;;;;10397092;28;20052;-81
2023/03/02 19:22:47;;;;;;;7.15;3.25;;;;;;;;;;10390490;28;20050;-80
2023/03/02 19:27:50;;;;;;;4.63;3.20;;;;;;;;;;10389961;28;20552;-79
2023/03/02 19:32:54;;;;;;;5.18;3.50;;;;;;;;;;10382424;28;20045;-80
2023/03/02 19:38:00;;;;;;;6.07;3.95;;;;;;;;;;10387210;28;20049;-80
2023/03/02 19:43:04;;;;;;;10.35;6.03;;;;;;;;;;10387602;28;20041;-80
2023/03/02 19:48:12;;;;;;;8.90;5.10;;;;;;;;;;10381299;28;20037;-81
2023/03/02 19:53:17;;;;;;;9.68;5.90;;;;;;;;;;10390434;28;20053;-80
2023/03/02 19:58:22;;;;;;;10.15;5.97;;;;;;;;;;10389541;28;20052;-80
2023/03/02 20:03:26;;;;;;;11.52;6.32;;;;;;;;;;10378912;28;20064;-80
2023/03/02 20:08:31;;;;;;;11.25;6.70;;;;;;;;;;10396680;28;20408;-81
2023/03/02 20:13:34;;;;;;;12.23;5.82;;;;;;;;;;10382328;28;20049;-80
2023/03/02 20:18:39;;;;;;;13.57;6.82;;;;;;;;;;10395037;28;20036;-81
2023/03/02 20:23:45;;;;;;;13.05;6.90;;;;;;;;;;10387792;28;20497;-80
2023/03/02 20:28:48;;;;;;;9.50;5.97;;;;;;;;;;10380739;28;20417;-81
2023/03/02 20:33:54;;;;;;;8.85;4.40;;;;;;;;;;10381124;28;20053;-80
2023/03/02 20:39:02;;;;;;;5.95;3.65;;;;;;;;;;10381543;28;20409;-81
2023/03/02 20:44:06;;;;;;;8.10;4.25;;;;;;;;;;10372052;28;20056;-81
2023/03/02 20:49:11;;;;;;;4.85;3.22;;;;;;;;;;10355312;28;20037;-81
2023/03/02 20:54:18;;;;;;;6.85;4.15;;;;;;;;;;10368440;28;20065;-80
2023/03/02 20:59:23;;;;;;;5.75;3.45;;;;;;;;;;10355958;28;20041;-80
2023/03/02 21:04:26;;;;;;;7.57;4.43;;;;;;;;;;10356486;28;20041;-80
2023/03/02 21:09:31;;;;;;;7.75;4.00;;;;;;;;;;10368998;28;20045;-79
2023/03/02 21:14:35;;;;;;;7.60;4.82;;;;;;;;;;10377053;28;20053;-80
2023/03/02 21:19:38;;;;;;;6.35;3.90;;;;;;;;;;10370413;28;20045;-81
2023/03/02 21:24:43;;;;;;;5.72;4.00;;;;;;;;;;10357452;28;20052;-82
2023/03/02 21:29:47;;;;;;;5.88;4.00;;;;;;;;;;10384093;28;20038;-82
2023/03/02 21:34:50;;;;;;;6.13;3.60;;;;;;;;;;10377563;28;20241;-81
2023/03/02 21:39:55;;;;;;;6.88;3.88;;;;;;;;;;10371548;28;20395;-82
2023/03/02 21:44:59;;;;;;;7.45;4.07;;;;;;;;;;10385120;28;20058;-82
2023/03/02 21:50:04;;;;;;;6.25;3.80;;;;;;;;;;10384365;28;20055;-81
2023/03/02 21:55:12;;;;;;;6.03;3.92;;;;;;;;;;10386185;28;20455;-81
2023/03/02 22:00:22;;;;;;;7.68;4.30;;;;;;;;;;10377384;28;20069;-82
2023/03/02 22:05:25;;;;;;;7.03;4.13;;;;;;;;;;10384048;28;20085;-82
2023/03/02 22:10:33;;;;;;;7.78;4.78;;;;;;;;;;10393160;28;20059;-82
2023/03/02 22:15:37;;;;;;;10.20;5.85;;;;;;;;;;10392987;28;20536;-83
2023/03/02 22:20:43;;;;;;;8.63;5.32;;;;;;;;;;10372333;28;20075;-82
2023/03/02 22:25:50;;;;;;;8.80;4.90;;;;;;;;;;10375223;28;20501;-82
2023/03/02 22:31:00;;;;;;;8.88;5.35;;;;;;;;;;10387221;28;20136;-82
2023/03/02 22:36:11;;;;;;;7.55;4.60;;;;;;;;;;10375737;28;20867;-82
2023/03/02 22:41:19;;;;;;;9.02;4.75;;;;;;;;;;10373160;28;20133;-82
2023/03/02 22:46:25;;;;;;;9.38;5.63;;;;;;;;;;10391162;28;20061;-81
2023/03/02 22:51:29;;;;;;;;;;;;;;;;;;10385946;28;20386;-82
2023/03/02 22:56:35;;;;;;;7.88;5.03;;;;;;;;;;10379944;28;19921;-82
2023/03/02 23:01:40;;;;;;;;;;;;;;;;;;10384662;28;20041;-82
2023/03/02 23:06:46;;;;;;;11.52;6.28;;;;;;;;;;10370803;28;20614;-82
2023/03/02 23:11:52;;;;;;;11.30;6.28;;;;;;;;;;10375859;28;20506;-82
2023/03/02 23:16:59;;;;;;;8.85;5.60;;;;;;;;;;10392135;28;20460;-81
2023/03/02 23:22:04;;;;;;;8.02;5.22;;;;;;;;;;10388912;28;20037;-82
2023/03/02 23:27:09;;;;;;;8.15;4.82;;;;;;;;;;10380684;28;20592;-83
2023/03/02 23:32:13;;;;;;;9.15;5.15;;;;;;;;;;10388680;28;20486;-81
2023/03/02 23:37:17;;;;;;;7.60;4.50;;;;;;;;;;10385955;28;20050;-82
2023/03/02 23:42:22;;;;;;;8.93;4.50;;;;;;;;;;10386177;28;20068;-81
2023/03/02 23:47:26;;;;;;;7.47;4.38;;;;;;;;;;10383753;28;20045;-81
2023/03/02 23:52:29;;;;;;;6.30;3.92;;;;;;;;;;10382636;28;20063;-80
2023/03/02 23:57:34;;;;;;;6.82;4.32;;;;;;;;;;10381918;28;20688;-80
